Time;durP1;ratioP1;P1;durP2;ratioP2;P2;SDS_P1;SDS_P2;PMS_P1;PMS_P2;Temp;Humidity;BMP_temperature;BMP_pressure;BME280_temperature;BME280_humidity;BME280_pressure;Samples;Min_cycle;Max_cycle;Signal;HPM_P1;HPM_P2
2023/07/28 00:02:06;;;;;;;14.38;8.23;;;18.60;99.90;;;;;;5043233;28;20388;-67
2023/07/28 00:04:34;;;;;;;14.73;7.35;;;18.60;99.90;;;;;;5037166;28;20063;-67
2023/07/28 00:06:59;;;;;;;15.60;8.10;;;18.60;99.90;;;;;;5046537;28;20047;-67
2023/07/28 00:09:26;;;;;;;17.42;7.63;;;18.60;99.90;;;;;;5039368;28;20045;-67
2023/07/28 00:11:51;;;;;;;25.52;9.35;;;18.60;99.90;;;;;;5044268;28;20611;-67
2023/07/28 00:14:17;;;;;;;20.65;8.95;;;18.60;99.90;;;;;;5045386;28;20121;-67
2023/07/28 00:16:43;;;;;;;16.42;8.48;;;18.60;99.90;;;;;;5046270;28;20493;-67
2023/07/28 00:19:09;;;;;;;23.02;9.02;;;18.60;99.90;;;;;;5045508;28;20115;-67
2023/07/28 00:21:35;;;;;;;23.30;8.70;;;18.60;99.90;;;;;;5015173;28;20128;-67
2023/07/28 00:24:00;;;;;;;15.68;8.32;;;18.60;99.90;;;;;;5040978;28;20384;-67
2023/07/28 00:26:26;;;;;;;18.02;8.80;;;18.60;99.90;;;;;;5048901;28;20083;-67
2023/07/28 00:28:52;;;;;;;17.38;8.63;;;18.60;99.90;;;;;;5039555;28;20048;-67
2023/07/28 00:31:18;;;;;;;17.17;8.48;;;18.60;99.90;;;;;;5037571;28;20041;-67
2023/07/28 00:33:43;;;;;;;20.08;8.80;;;18.60;99.90;;;;;;5055525;28;20081;-67
2023/07/28 00:36:09;;;;;;;23.98;9.27;;;18.60;99.90;;;;;;5051650;28;20045;-67
2023/07/28 00:38:35;;;;;;;24.55;9.95;;;18.60;99.90;;;;;;5049670;28;20037;-67
2023/07/28 00:41:01;;;;;;;19.15;9.93;;;18.60;99.90;;;;;;5046589;28;20052;-67
2023/07/28 00:43:26;;;;;;;19.85;9.95;;;18.60;99.90;;;;;;5041910;28;20041;-67
2023/07/28 00:45:53;;;;;;;13.05;9.18;;;18.60;99.90;;;;;;5043426;28;20044;-67
2023/07/28 00:48:20;;;;;;;18.95;9.40;;;18.60;99.90;;;;;;5047021;28;20064;-67
2023/07/28 00:50:48;;;;;;;16.98;9.50;;;18.60;99.90;;;;;;5043728;28;20048;-67
2023/07/28 00:53:15;;;;;;;13.63;8.27;;;18.60;99.90;;;;;;5041717;28;20412;-67
2023/07/28 00:55:41;;;;;;;15.93;9.00;;;18.60;99.90;;;;;;5047797;28;20083;-67
2023/07/28 00:58:09;;;;;;;13.35;7.70;;;18.60;99.90;;;;;;5040454;28;20045;-66
2023/07/28 01:00:35;;;;;;;19.13;10.95;;;18.60;99.90;;;;;;5048125;28;20129;-67
2023/07/28 01:03:01;;;;;;;27.13;11.80;;;18.60;99.90;;;;;;5027297;28;20072;-67
2023/07/28 01:05:52;;;;;;;21.80;8.82;;;18.60;99.90;;;;;;5049433;28;20111;-67
2023/07/28 01:08:40;;;;;;;19.42;10.18;;;18.60;99.90;;;;;;5045314;28;20053;-66
2023/07/28 01:11:05;;;;;;;23.67;9.18;;;18.60;99.90;;;;;;5046113;28;20051;-66
2023/07/28 01:13:31;;;;;;;16.33;10.57;;;18.60;99.90;;;;;;5041514;28;20049;-67
2023/07/28 01:15:58;;;;;;;19.70;9.88;;;18.60;99.90;;;;;;5043482;28;20114;-67
2023/07/28 01:18:23;;;;;;;27.98;11.05;;;18.60;99.90;;;;;;5047637;28;20040;-66
2023/07/28 01:20:55;;;;;;;24.08;11.75;;;18.60;99.90;;;;;;5045424;28;20064;-67
2023/07/28 01:23:40;;;;;;;19.38;10.73;;;18.60;99.90;;;;;;5046435;28;20111;-67
2023/07/28 01:26:10;;;;;;;23.02;12.27;;;18.60;99.90;;;;;;5015020;28;20041;-67
2023/07/28 01:28:37;;;;;;;23.92;10.95;;;18.60;99.90;;;;;;5040532;28;20401;-67
2023/07/28 01:31:07;;;;;;;23.40;10.13;;;18.60;99.90;;;;;;5045625;28;20041;-66
2023/07/28 01:33:33;;;;;;;19.48;10.35;;;18.60;99.90;;;;;;5042923;28;20041;-66
2023/07/28 01:36:00;;;;;;;20.13;10.90;;;18.60;99.90;;;;;;5054506;28;20044;-69
2023/07/28 01:38:27;;;;;;;21.80;10.43;;;18.60;99.90;;;;;;5052070;28;20123;-66
2023/07/28 01:40:53;;;;;;;15.93;10.50;;;18.60;99.90;;;;;;5051267;28;20482;-66
2023/07/28 01:43:19;;;;;;;19.60;9.63;;;18.60;99.90;;;;;;5042644;28;20059;-66
2023/07/28 01:45:45;;;;;;;19.25;9.50;;;18.60;99.90;;;;;;5052898;28;20041;-66
2023/07/28 01:48:11;;;;;;;18.85;9.43;;;18.60;99.90;;;;;;5052011;28;20040;-69
2023/07/28 01:50:37;;;;;;;19.90;9.02;;;18.60;99.90;;;;;;5048550;28;20087;-66
2023/07/28 01:53:05;;;;;;;22.10;10.88;;;18.60;99.90;;;;;;5030513;28;20073;-67
2023/07/28 01:55:30;;;;;;;27.42;9.25;;;18.60;99.90;;;;;;5048755;28;20041;-66
2023/07/28 01:57:58;;;;;;;21.63;9.70;;;18.60;99.90;;;;;;5049360;28;20053;-66
2023/07/28 02:00:24;;;;;;;19.98;9.07;;;18.60;99.90;;;;;;5049806;28;20102;-66
2023/07/28 02:02:51;;;;;;;21.13;9.40;;;18.60;99.90;;;;;;5053354;28;20037;-66
2023/07/28 02:05:17;;;;;;;15.20;8.52;;;18.50;99.90;;;;;;5043549;28;20041;-66
2023/07/28 02:07:43;;;;;;;28.00;9.07;;;18.60;99.90;;;;;;5051211;28;20040;-66
2023/07/28 02:10:10;;;;;;;16.30;7.60;;;18.50;99.90;;;;;;5052138;28;20045;-66
2023/07/28 02:12:36;;;;;;;14.52;6.65;;;18.50;99.90;;;;;;5056175;28;20045;-66
2023/07/28 02:15:03;;;;;;;23.30;8.20;;;18.50;99.90;;;;;;5052816;28;20045;-66
2023/07/28 02:17:29;;;;;;;19.05;8.32;;;18.50;99.90;;;;;;5049050;28;20033;-66
2023/07/28 02:19:55;;;;;;;15.48;7.78;;;18.50;99.90;;;;;;5047137;28;20107;-66
2023/07/28 02:22:21;;;;;;;15.15;6.95;;;18.50;99.90;;;;;;5052269;28;20485;-66
2023/07/28 02:24:46;;;;;;;16.98;7.53;;;18.50;99.90;;;;;;5053795;28;20036;-66
2023/07/28 02:27:12;;;;;;;16.55;6.82;;;18.50;99.90;;;;;;5055385;28;20131;-66
2023/07/28 02:29:38;;;;;;;16.90;7.93;;;18.50;99.90;;;;;;5047362;28;20036;-66
2023/07/28 02:32:04;;;;;;;15.25;7.53;;;18.50;99.90;;;;;;5053021;28;20127;-66
2023/07/28 02:34:30;;;;;;;16.52;5.95;;;18.50;99.90;;;;;;5050405;28;20048;-66
2023/07/28 02:36:56;;;;;;;16.58;7.40;;;18.50;99.90;;;;;;5052604;28;20442;-66
2023/07/28 02:39:23;;;;;;;16.20;5.97;;;18.50;99.90;;;;;;5050645;28;20044;-66
2023/07/28 02:41:48;;;;;;;15.57;7.15;;;18.60;99.90;;;;;;5052281;28;20041;-66
2023/07/28 02:44:14;;;;;;;15.90;6.63;;;18.50;99.90;;;;;;5041167;28;20029;-66
2023/07/28 02:46:40;;;;;;;10.52;5.32;;;18.50;99.90;;;;;;5047863;28;20047;-66
2023/07/28 02:49:06;;;;;;;11.80;5.45;;;18.50;99.90;;;;;;5050868;28;20036;-67
2023/07/28 02:51:33;;;;;;;17.02;6.68;;;18.50;99.90;;;;;;5045902;28;20045;-66
2023/07/28 02:53:59;;;;;;;15.18;6.05;;;18.60;99.90;;;;;;5054063;28;20055;-66
2023/07/28 02:56:25;;;;;;;17.13;5.75;;;18.60;99.90;;;;;;5049843;28;20475;-66
2023/07/28 02:58:50;;;;;;;19.13;6.93;;;18.50;99.90;;;;;;5049229;28;20040;-66
2023/07/28 03:01:17;;;;;;;18.13;6.45;;;18.50;99.90;;;;;;5051316;28;20044;-66
2023/07/28 03:03:43;;;;;;;11.85;5.22;;;18.50;99.90;;;;;;5019351;28;20049;-66
2023/07/28 03:06:09;;;;;;;14.23;6.30;;;18.50;99.90;;;;;;5046922;28;20487;-66
2023/07/28 03:08:35;;;;;;;11.77;5.75;;;18.50;99.90;;;;;;5051689;28;20041;-66
2023/07/28 03:11:03;;;;;;;14.32;6.20;;;18.50;99.90;;;;;;5048919;28;20052;-66
2023/07/28 03:13:29;;;;;;;15.13;6.22;;;18.50;99.90;;;;;;5048981;28;20503;-66
2023/07/28 03:15:55;;;;;;;14.35;6.72;;;18.50;99.90;;;;;;5048047;28;20080;-66
2023/07/28 03:18:21;;;;;;;14.00;5.82;;;18.50;99.90;;;;;;5051545;28;20045;-66
2023/07/28 03:20:47;;;;;;;13.20;7.28;;;18.50;99.90;;;;;;5046332;28;20041;-66
2023/07/28 03:23:13;;;;;;;10.65;5.22;;;18.50;99.90;;;;;;5020119;28;20051;-66
2023/07/28 03:25:38;;;;;;;11.32;5.82;;;18.50;99.90;;;;;;5054017;28;20040;-66
2023/07/28 03:28:04;;;;;;;11.68;5.93;;;18.50;99.90;;;;;;5050999;28;20047;-66
2023/07/28 03:30:30;;;;;;;11.57;5.20;;;18.50;99.90;;;;;;5051365;28;20045;-66
2023/07/28 03:32:56;;;;;;;15.38;6.75;;;18.50;99.90;;;;;;5041469;28;20075;-66
2023/07/28 03:35:22;;;;;;;12.40;6.80;;;18.50;99.90;;;;;;5044131;28;20504;-66
2023/07/28 03:37:48;;;;;;;14.85;6.63;;;18.50;99.90;;;;;;5048715;28;21141;-66
2023/07/28 03:40:14;;;;;;;13.57;6.05;;;18.50;99.90;;;;;;5043286;28;20049;-66
2023/07/28 03:42:39;;;;;;;13.65;6.28;;;18.50;99.90;;;;;;5039839;28;20099;-66
2023/07/28 03:45:06;;;;;;;20.38;6.38;;;18.50;99.90;;;;;;5040276;28;20041;-66
2023/07/28 03:47:32;;;;;;;12.30;5.47;;;18.50;99.90;;;;;;5047927;28;20433;-66
2023/07/28 03:49:58;;;;;;;17.83;5.88;;;18.50;99.90;;;;;;5041984;28;20045;-66
2023/07/28 03:52:23;;;;;;;8.15;5.68;;;18.50;99.90;;;;;;5046023;28;20613;-66
2023/07/28 03:54:49;;;;;;;16.17;5.88;;;18.50;99.90;;;;;;5037060;28;20415;-66
2023/07/28 03:57:15;;;;;;;11.80;5.20;;;18.50;99.90;;;;;;5042966;28;20052;-66
2023/07/28 03:59:41;;;;;;;9.30;4.63;;;18.50;99.90;;;;;;5046572;28;20432;-66
2023/07/28 04:02:06;;;;;;;8.88;4.45;;;18.50;99.90;;;;;;5052376;28;20103;-66
2023/07/28 04:04:32;;;;;;;13.23;5.20;;;18.50;99.90;;;;;;5057296;28;20127;-66
2023/07/28 04:06:58;;;;;;;21.55;5.18;;;18.50;99.90;;;;;;5055874;28;20043;-66
2023/07/28 04:09:24;;;;;;;11.80;5.22;;;18.50;99.90;;;;;;5051803;28;20033;-66
2023/07/28 04:11:49;;;;;;;9.07;4.32;;;18.50;99.90;;;;;;5056600;28;20045;-66
2023/07/28 04:14:15;;;;;;;7.47;4.93;;;18.50;99.90;;;;;;5055600;28;20049;-66
2023/07/28 04:16:41;;;;;;;13.93;6.25;;;18.50;99.90;;;;;;5033171;28;20048;-66
2023/07/28 04:19:07;;;;;;;11.52;4.97;;;18.50;99.90;;;;;;5049984;28;20048;-66
2023/07/28 04:21:33;;;;;;;11.65;5.05;;;18.50;99.90;;;;;;5053351;28;20490;-66
2023/07/28 04:23:58;;;;;;;11.18;5.38;;;18.50;99.90;;;;;;5043119;28;20037;-66
2023/07/28 04:26:25;;;;;;;8.63;4.47;;;18.50;99.90;;;;;;5047105;28;20500;-66
2023/07/28 04:28:51;;;;;;;9.77;4.50;;;18.50;99.90;;;;;;5040134;28;20041;-66
2023/07/28 04:31:17;;;;;;;11.55;5.38;;;18.50;99.90;;;;;;5046708;28;20128;-66
2023/07/28 04:33:43;;;;;;;7.90;4.25;;;18.50;99.90;;;;;;5051259;28;20628;-66
2023/07/28 04:36:09;;;;;;;14.32;5.35;;;18.50;99.90;;;;;;5053189;28;20195;-66
2023/07/28 04:38:35;;;;;;;12.80;6.05;;;18.50;99.90;;;;;;5053712;28;20037;-66
2023/07/28 04:41:01;;;;;;;10.68;4.90;;;18.50;99.90;;;;;;5053155;28;20053;-66
2023/07/28 04:43:27;;;;;;;14.60;5.95;;;18.50;99.90;;;;;;5040319;28;20038;-66
2023/07/28 04:45:53;;;;;;;7.75;5.13;;;18.50;99.90;;;;;;5044849;28;20091;-66
2023/07/28 04:48:19;;;;;;;9.27;4.40;;;18.40;99.90;;;;;;5046915;28;20049;-67
2023/07/28 04:50:45;;;;;;;12.25;4.88;;;18.50;99.90;;;;;;5045116;28;20402;-66
2023/07/28 04:53:10;;;;;;;9.90;5.47;;;18.50;99.90;;;;;;5041768;28;20041;-66
2023/07/28 04:55:36;;;;;;;12.23;5.35;;;18.50;99.90;;;;;;5048697;28;20481;-66
2023/07/28 04:58:02;;;;;;;14.10;6.72;;;18.50;99.90;;;;;;5047007;28;20076;-66
2023/07/28 05:00:28;;;;;;;13.80;6.43;;;18.50;99.90;;;;;;5044160;28;20044;-67
2023/07/28 05:02:54;;;;;;;10.15;5.65;;;18.50;99.90;;;;;;5054230;28;20078;-66
2023/07/28 05:05:20;;;;;;;10.20;5.82;;;18.50;99.90;;;;;;5048536;28;20045;-66
2023/07/28 05:07:46;;;;;;;11.18;6.22;;;18.50;99.90;;;;;;5053773;28;20445;-66
2023/07/28 05:10:11;;;;;;;8.55;5.68;;;18.50;99.90;;;;;;5048673;28;20045;-66
2023/07/28 05:12:37;;;;;;;8.88;5.43;;;18.50;99.90;;;;;;5035802;28;20057;-66
2023/07/28 05:15:04;;;;;;;11.63;6.40;;;18.50;99.90;;;;;;5052269;28;20435;-66
2023/07/28 05:17:30;;;;;;;8.30;5.63;;;18.50;99.90;;;;;;5047328;28;20041;-66
2023/07/28 05:19:55;;;;;;;9.20;6.25;;;18.50;99.90;;;;;;5049001;28;20523;-66
2023/07/28 05:22:21;;;;;;;9.27;5.95;;;18.50;99.90;;;;;;5041594;28;20411;-66
2023/07/28 05:24:47;;;;;;;8.18;5.85;;;18.50;99.90;;;;;;5048520;28;20045;-66
2023/07/28 05:27:13;;;;;;;8.70;5.53;;;18.50;99.90;;;;;;5042003;28;20491;-66
2023/07/28 05:29:39;;;;;;;9.38;7.10;;;18.50;99.90;;;;;;5039807;28;20590;-67
2023/07/28 05:32:06;;;;;;;10.40;7.40;;;18.50;99.90;;;;;;5042790;28;20037;-66
2023/07/28 05:34:32;;;;;;;9.32;7.20;;;18.50;99.90;;;;;;5044297;28;20052;-66
2023/07/28 05:36:58;;;;;;;15.13;6.72;;;18.50;99.90;;;;;;5054457;28;20428;-66
2023/07/28 05:39:24;;;;;;;10.93;6.82;;;18.50;99.90;;;;;;5048070;28;20041;-66
2023/07/28 05:41:49;;;;;;;9.98;7.57;;;18.50;99.90;;;;;;5049857;28;20040;-66
2023/07/28 05:44:15;;;;;;;12.55;7.60;;;18.60;99.90;;;;;;5041175;28;20049;-66
2023/07/28 05:46:41;;;;;;;11.93;7.72;;;18.50;99.90;;;;;;5036083;28;20448;-66
2023/07/28 05:49:07;;;;;;;11.68;7.90;;;18.60;99.90;;;;;;5029096;28;20044;-66
2023/07/28 05:51:32;;;;;;;10.35;7.28;;;18.50;99.90;;;;;;5049122;28;20163;-67
2023/07/28 05:53:58;;;;;;;11.52;6.63;;;18.60;99.90;;;;;;5044834;28;20047;-66
2023/07/28 05:56:24;;;;;;;11.68;8.00;;;18.60;99.90;;;;;;5020987;28;20048;-67
2023/07/28 05:58:50;;;;;;;11.02;8.23;;;18.60;99.90;;;;;;5045560;28;20448;-67
2023/07/28 06:01:17;;;;;;;9.70;7.50;;;18.60;99.90;;;;;;5031615;28;20124;-67
2023/07/28 06:03:43;;;;;;;9.45;6.93;;;18.60;99.90;;;;;;5047421;28;20033;-67
2023/07/28 06:06:09;;;;;;;13.43;8.30;;;18.60;99.90;;;;;;5036353;28;20057;-67
2023/07/28 06:08:35;;;;;;;9.63;7.45;;;18.60;99.90;;;;;;5050177;28;20107;-67
2023/07/28 06:11:05;;;;;;;12.00;8.23;;;18.60;99.90;;;;;;5054152;28;20057;-67
2023/07/28 06:13:31;;;;;;;10.32;7.90;;;18.60;99.90;;;;;;5061102;28;20484;-67
2023/07/28 06:15:58;;;;;;;10.60;6.93;;;18.60;99.90;;;;;;5052872;28;20116;-67
2023/07/28 06:18:25;;;;;;;14.05;7.90;;;18.60;99.90;;;;;;5051788;28;20076;-67
2023/07/28 06:20:50;;;;;;;11.13;7.25;;;18.60;99.90;;;;;;5047827;28;20041;-67
2023/07/28 06:23:16;;;;;;;9.73;7.57;;;18.70;99.90;;;;;;5049182;28;20045;-67
2023/07/28 06:25:45;;;;;;;9.50;7.50;;;18.70;99.90;;;;;;5027029;28;20099;-67
2023/07/28 06:28:12;;;;;;;9.40;7.20;;;18.70;99.90;;;;;;5045584;28;20238;-67
2023/07/28 06:30:38;;;;;;;10.10;7.65;;;18.70;99.90;;;;;;5050317;28;20053;-67
2023/07/28 06:33:11;;;;;;;13.55;7.78;;;18.70;99.90;;;;;;5048350;28;20139;-67
2023/07/28 06:35:36;;;;;;;10.05;7.68;;;18.70;99.90;;;;;;5046099;28;20117;-67
2023/07/28 06:38:02;;;;;;;8.70;7.03;;;18.80;99.90;;;;;;5053856;28;20124;-67
2023/07/28 06:40:28;;;;;;;8.65;6.88;;;18.80;99.90;;;;;;5047728;28;20502;-67
2023/07/28 06:42:54;;;;;;;7.95;6.18;;;18.80;99.90;;;;;;5042807;28;20040;-67
2023/07/28 06:45:21;;;;;;;8.30;7.43;;;18.80;99.90;;;;;;5037983;28;20072;-67
2023/07/28 06:47:46;;;;;;;8.15;6.43;;;18.80;99.90;;;;;;5041701;28;20049;-67
2023/07/28 06:50:12;;;;;;;7.05;5.88;;;18.90;99.90;;;;;;5051227;28;20032;-67
2023/07/28 06:52:38;;;;;;;7.22;5.80;;;18.90;99.90;;;;;;5046670;28;20033;-67
2023/07/28 06:55:04;;;;;;;7.57;6.72;;;18.90;99.90;;;;;;5052719;28;20107;-67
2023/07/28 06:57:31;;;;;;;7.97;7.18;;;18.90;99.90;;;;;;5047859;28;20037;-67
2023/07/28 06:59:57;;;;;;;8.15;6.97;;;18.90;99.90;;;;;;5048394;28;20041;-67
2023/07/28 07:02:23;;;;;;;9.20;7.10;;;18.90;99.90;;;;;;5041640;28;20041;-66
2023/07/28 07:04:49;;;;;;;8.02;6.45;;;18.90;99.90;;;;;;5040918;28;20024;-66
2023/07/28 07:07:15;;;;;;;8.00;6.03;;;18.90;99.90;;;;;;5053184;28;20039;-67
2023/07/28 07:09:41;;;;;;;7.95;6.32;;;18.90;99.90;;;;;;5055969;28;20040;-67
2023/07/28 07:12:08;;;;;;;8.48;6.85;;;19.00;99.90;;;;;;5036890;28;20044;-66
2023/07/28 07:14:35;;;;;;;8.93;6.75;;;18.90;99.90;;;;;;5029932;28;20094;-67
2023/07/28 07:17:01;;;;;;;10.75;8.38;;;19.00;99.90;;;;;;5030403;28;20056;-67
2023/07/28 07:19:30;;;;;;;8.35;6.82;;;18.90;99.90;;;;;;5042776;28;20115;-67
2023/07/28 07:21:56;;;;;;;11.32;7.63;;;19.00;99.90;;;;;;5028824;28;20055;-67
2023/07/28 07:24:24;;;;;;;10.45;7.40;;;19.00;99.90;;;;;;5043457;28;20064;-67
2023/07/28 07:26:50;;;;;;;9.60;7.88;;;19.00;99.90;;;;;;5043136;28;20126;-67
2023/07/28 07:29:17;;;;;;;10.50;8.25;;;19.00;99.90;;;;;;5039822;28;20044;-67
2023/07/28 07:31:43;;;;;;;11.75;9.50;;;19.00;99.90;;;;;;5044763;28;20041;-67
2023/07/28 07:34:09;;;;;;;12.18;9.30;;;19.00;99.90;;;;;;5051091;28;20293;-67
2023/07/28 07:36:39;;;;;;;10.65;8.15;;;19.00;99.90;;;;;;5037729;28;20072;-67
2023/07/28 07:39:06;;;;;;;11.85;8.32;;;19.00;99.90;;;;;;5043646;28;20028;-67
2023/07/28 07:41:31;;;;;;;11.05;8.88;;;19.00;99.90;;;;;;5040270;28;20037;-67
2023/07/28 07:44:00;;;;;;;10.98;9.48;;;19.00;99.90;;;;;;5048231;28;20044;-67
2023/07/28 07:46:26;;;;;;;12.52;9.65;;;19.00;99.90;;;;;;5033696;28;20034;-67
2023/07/28 07:48:52;;;;;;;10.90;8.88;;;19.00;99.90;;;;;;5034366;28;20033;-67
2023/07/28 07:51:18;;;;;;;9.70;7.78;;;19.00;99.90;;;;;;5039111;28;20051;-67
2023/07/28 07:53:45;;;;;;;12.75;9.75;;;19.00;99.90;;;;;;5044790;28;20045;-67
2023/07/28 07:56:10;;;;;;;8.60;7.28;;;19.00;99.90;;;;;;5036150;28;20103;-67
2023/07/28 07:58:36;;;;;;;9.10;7.68;;;19.10;99.90;;;;;;5029441;28;20045;-68
2023/07/28 08:01:02;;;;;;;9.57;6.95;;;19.10;99.90;;;;;;5048744;28;20067;-67
2023/07/28 08:03:29;;;;;;;8.77;6.57;;;;;;;;;;5047123;28;20041;-67
2023/07/28 08:05:55;;;;;;;8.50;6.50;;;;;;;;;;5020772;28;20479;-68
2023/07/28 08:08:21;;;;;;;7.50;6.25;;;;;;;;;;5048423;28;20037;-67
2023/07/28 08:10:47;;;;;;;7.53;6.47;;;19.10;99.90;;;;;;5042940;28;20490;-67
2023/07/28 08:13:14;;;;;;;7.32;5.63;;;;;;;;;;5050041;28;20453;-67
2023/07/28 08:15:44;;;;;;;7.45;4.78;;;19.20;99.90;;;;;;5044757;28;20076;-68
2023/07/28 08:18:11;;;;;;;5.45;4.72;;;19.20;99.90;;;;;;5044632;28;20049;-68
2023/07/28 08:20:37;;;;;;;6.65;5.38;;;19.20;99.90;;;;;;5039681;28;20049;-67
2023/07/28 08:23:02;;;;;;;5.95;5.10;;;19.20;99.90;;;;;;5028785;28;20048;-67
2023/07/28 08:25:28;;;;;;;7.20;5.93;;;19.30;99.90;;;;;;5017629;28;20068;-67
2023/07/28 08:27:54;;;;;;;6.68;5.53;;;19.30;99.90;;;;;;5047217;28;20040;-67
2023/07/28 08:30:20;;;;;;;6.03;4.65;;;19.30;99.90;;;;;;5046719;28;20125;-68
2023/07/28 08:32:46;;;;;;;5.47;4.35;;;19.30;99.90;;;;;;5043452;28;20103;-67
2023/07/28 08:35:12;;;;;;;10.38;6.50;;;19.40;99.90;;;;;;5040327;28;20041;-67
2023/07/28 08:37:38;;;;;;;6.43;4.45;;;19.40;99.90;;;;;;5046848;28;20463;-67
2023/07/28 08:40:08;;;;;;;9.85;5.53;;;19.40;99.90;;;;;;5025628;28;20126;-68
2023/07/28 08:42:39;;;;;;;7.95;5.95;;;19.50;99.90;;;;;;5041734;28;20124;-67
2023/07/28 08:45:06;;;;;;;8.63;5.35;;;19.60;99.90;;;;;;5030825;28;20049;-67
2023/07/28 08:47:32;;;;;;;8.95;5.90;;;19.60;99.90;;;;;;5042998;28;20116;-67
2023/07/28 08:49:58;;;;;;;7.53;5.50;;;19.80;99.90;;;;;;5042851;28;20038;-67
2023/07/28 08:52:24;;;;;;;11.75;6.30;;;19.80;99.90;;;;;;5042263;28;20040;-68
2023/07/28 08:54:51;;;;;;;7.10;5.32;;;19.90;99.90;;;;;;5043523;28;20095;-67
2023/07/28 08:57:16;;;;;;;5.13;4.30;;;20.00;99.90;;;;;;5056349;28;20514;-67
2023/07/28 08:59:47;;;;;;;8.15;4.65;;;;;;;;;;5042879;28;20076;-67
2023/07/28 09:02:17;;;;;;;6.50;4.22;;;;;;;;;;5041426;28;20047;-67
2023/07/28 09:04:44;;;;;;;6.63;4.65;;;;;;;;;;5044080;28;20128;-67
2023/07/28 09:07:09;;;;;;;5.25;4.55;;;20.00;99.90;;;;;;5052337;28;20521;-67
2023/07/28 09:09:38;;;;;;;5.60;4.53;;;;;;;;;;5046961;28;20029;-67
2023/07/28 09:12:05;;;;;;;6.25;3.85;;;20.20;99.90;;;;;;5038054;28;20099;-67
2023/07/28 09:14:31;;;;;;;7.43;4.80;;;20.30;99.90;;;;;;5046605;28;20200;-67
2023/07/28 09:17:13;;;;;;;6.15;3.97;;;20.30;99.90;;;;;;5058461;28;20119;-67
2023/07/28 09:19:52;;;;;;;6.88;4.10;;;20.40;99.90;;;;;;5043207;28;20287;-67
2023/07/28 09:22:20;;;;;;;5.22;4.32;;;20.50;99.90;;;;;;5040065;28;20037;-67
2023/07/28 09:24:46;;;;;;;4.15;3.75;;;20.50;99.90;;;;;;5041913;28;20033;-67
2023/07/28 09:27:24;;;;;;;4.22;3.42;;;20.50;99.90;;;;;;5039858;28;20032;-67
2023/07/28 09:29:57;;;;;;;4.00;3.33;;;20.40;99.90;;;;;;5036619;28;20475;-67
2023/07/28 09:32:33;;;;;;;3.75;3.30;;;20.50;99.90;;;;;;5048445;28;20056;-67
2023/07/28 09:35:12;;;;;;;3.65;2.72;;;20.60;99.90;;;;;;5048025;28;20034;-67
2023/07/28 09:37:40;;;;;;;5.38;3.30;;;;;;;;;;5034923;28;20038;-66
2023/07/28 09:40:11;;;;;;;3.10;2.22;;;;;;;;;;5040013;28;20199;-67
2023/07/28 09:42:37;;;;;;;3.40;2.63;;;;;;;;;;5037311;28;20406;-66
2023/07/28 09:45:05;;;;;;;3.60;3.22;;;;;;;;;;5026020;28;20037;-66
2023/07/28 09:47:37;;;;;;;4.85;3.42;;;20.70;99.90;;;;;;5044590;28;20163;-66
2023/07/28 09:50:05;;;;;;;4.45;3.33;;;;;;;;;;5043795;28;20414;-67
2023/07/28 09:52:35;;;;;;;5.10;2.90;;;;;;;;;;5052933;28;20143;-67
2023/07/28 09:55:08;;;;;;;3.35;2.90;;;21.00;99.90;;;;;;5053504;28;20080;-67
2023/07/28 09:57:37;;;;;;;2.92;2.63;;;;;;;;;;5041617;28;20041;-67
2023/07/28 10:00:04;;;;;;;4.10;3.13;;;;;;;;;;5042528;28;20055;-67
2023/07/28 10:02:30;;;;;;;3.45;3.10;;;;;;;;;;5038921;28;20056;-67
2023/07/28 10:04:56;;;;;;;3.88;2.35;;;21.10;99.90;;;;;;5039309;28;20123;-67
2023/07/28 10:07:24;;;;;;;3.15;2.60;;;21.30;99.90;;;;;;5040583;28;20366;-67
2023/07/28 10:09:50;;;;;;;3.33;2.78;;;21.40;99.90;;;;;;5034401;28;20285;-67
2023/07/28 10:12:24;;;;;;;5.93;2.38;;;21.40;99.90;;;;;;5048821;28;20037;-66
2023/07/28 10:15:01;;;;;;;5.82;2.85;;;21.40;99.90;;;;;;5044818;28;20053;-66
2023/07/28 10:17:34;;;;;;;3.13;2.28;;;21.50;99.90;;;;;;5044053;28;20045;-66
2023/07/28 10:20:08;;;;;;;3.40;2.75;;;21.50;99.90;;;;;;5057062;28;20048;-66
2023/07/28 10:22:47;;;;;;;3.15;2.72;;;21.50;99.90;;;;;;5047191;28;20048;-67
2023/07/28 10:25:23;;;;;;;4.50;2.50;;;21.60;99.90;;;;;;5024234;28;20372;-66
2023/07/28 10:27:50;;;;;;;4.35;2.22;;;21.60;99.90;;;;;;5046934;28;20043;-67
2023/07/28 10:30:17;;;;;;;3.45;2.30;;;;;;;;;;5048218;28;20148;-66
2023/07/28 10:32:43;;;;;;;3.35;2.55;;;;;;;;;;5038675;28;20102;-66
2023/07/28 10:35:29;;;;;;;4.03;2.72;;;21.70;99.90;;;;;;5041583;28;20121;-67
2023/07/28 10:37:58;;;;;;;3.70;2.47;;;;;;;;;;5048011;28;20112;-66
2023/07/28 10:40:28;;;;;;;4.20;2.10;;;;;;;;;;5048026;28;20041;-67
2023/07/28 10:42:54;;;;;;;3.80;2.20;;;;;;;;;;5043767;28;20087;-66
2023/07/28 10:45:22;;;;;;;11.95;2.55;;;;;;;;;;5040082;28;20032;-66
2023/07/28 10:47:49;;;;;;;2.80;2.05;;;;;;;;;;5048224;28;20437;-67
2023/07/28 10:50:15;;;;;;;3.20;2.13;;;22.00;99.90;;;;;;5035036;28;20677;-66
2023/07/28 10:52:43;;;;;;;3.10;2.33;;;22.50;99.90;;;;;;5051134;28;20467;-66
2023/07/28 10:55:20;;;;;;;3.85;2.20;;;22.60;99.90;;;;;;5041882;28;20113;-66
2023/07/28 10:57:49;;;;;;;4.63;2.22;;;22.60;99.90;;;;;;5044524;28;20034;-66
2023/07/28 11:00:17;;;;;;;3.63;1.95;;;22.70;99.90;;;;;;5043036;28;20047;-66
2023/07/28 11:02:44;;;;;;;3.53;2.03;;;22.70;99.90;;;;;;5039345;28;20132;-66
2023/07/28 11:05:12;;;;;;;2.13;1.45;;;22.80;99.90;;;;;;5046180;28;20041;-66
2023/07/28 11:07:48;;;;;;;3.22;1.50;;;22.80;99.90;;;;;;5041879;28;20044;-67
2023/07/28 11:10:17;;;;;;;2.40;1.60;;;22.90;99.90;;;;;;5034665;28;20110;-66
2023/07/28 11:12:44;;;;;;;4.15;1.95;;;23.00;99.90;;;;;;5044559;28;20033;-66
2023/07/28 11:15:12;;;;;;;2.90;1.70;;;23.10;99.90;;;;;;5045788;28;20060;-66
2023/07/28 11:17:44;;;;;;;3.63;1.67;;;23.20;99.90;;;;;;5043975;28;20052;-66
2023/07/28 11:20:20;;;;;;;2.90;1.80;;;;;;;;;;5040012;28;20060;-66
2023/07/28 11:22:54;;;;;;;2.80;2.17;;;;;;;;;;5047000;28;20040;-66
2023/07/28 11:25:21;;;;;;;4.00;1.77;;;;;;;;;;5047474;28;20085;-67
2023/07/28 11:27:47;;;;;;;3.95;2.17;;;;;;;;;;5042891;28;20076;-66
2023/07/28 11:30:18;;;;;;;2.38;1.80;;;23.30;99.90;;;;;;5032138;28;20467;-66
2023/07/28 11:32:46;;;;;;;4.13;1.50;;;23.40;99.90;;;;;;5051082;28;20032;-67
2023/07/28 11:35:15;;;;;;;1.98;1.35;;;23.50;99.90;;;;;;5047440;28;20037;-67
2023/07/28 11:37:42;;;;;;;2.38;1.35;;;23.50;99.90;;;;;;5044039;28;20055;-67
2023/07/28 11:40:13;;;;;;;2.72;1.60;;;23.50;99.90;;;;;;5038848;28;20558;-66
2023/07/28 11:42:59;;;;;;;3.75;1.67;;;23.50;99.90;;;;;;5055069;28;20036;-67
2023/07/28 11:45:26;;;;;;;1.92;1.20;;;23.60;99.90;;;;;;5041901;28;20523;-67
2023/07/28 11:48:00;;;;;;;2.90;1.70;;;23.60;99.90;;;;;;5044153;28;20055;-66
2023/07/28 11:50:28;;;;;;;2.92;1.98;;;23.70;99.90;;;;;;5054575;28;20044;-67
2023/07/28 11:52:54;;;;;;;3.33;2.13;;;23.80;99.90;;;;;;5051602;28;20128;-66
2023/07/28 11:55:22;;;;;;;2.63;1.63;;;23.90;99.90;;;;;;5056969;28;20099;-66
2023/07/28 11:57:49;;;;;;;2.22;1.55;;;24.00;99.90;;;;;;5048139;28;20045;-66
2023/07/28 12:00:25;;;;;;;6.38;1.85;;;24.00;99.90;;;;;;5052341;28;20485;-67
2023/07/28 12:03:04;;;;;;;1.98;1.60;;;24.10;99.90;;;;;;5032071;28;20075;-67
2023/07/28 12:05:30;;;;;;;3.60;1.73;;;24.20;99.90;;;;;;5046586;28;20092;-67
2023/07/28 12:07:56;;;;;;;2.95;1.73;;;24.20;99.90;;;;;;5043624;28;20449;-67
2023/07/28 12:10:22;;;;;;;2.58;1.70;;;24.20;99.90;;;;;;5046646;28;20073;-66
2023/07/28 12:12:48;;;;;;;3.05;2.08;;;24.30;99.90;;;;;;5042796;28;20401;-67
2023/07/28 12:15:33;;;;;;;2.03;1.40;;;24.30;99.90;;;;;;5039718;28;20140;-66
2023/07/28 12:18:13;;;;;;;2.13;1.33;;;24.30;99.90;;;;;;5042513;28;20052;-67
2023/07/28 12:20:41;;;;;;;2.75;1.17;;;24.40;99.90;;;;;;5044569;28;20127;-67
2023/07/28 12:23:08;;;;;;;2.70;1.85;;;24.40;99.90;;;;;;5050238;28;20402;-67
2023/07/28 12:25:36;;;;;;;2.58;1.20;;;24.50;99.90;;;;;;5052641;28;20040;-67
2023/07/28 12:28:03;;;;;;;2.08;1.60;;;;;;;;;;5052205;28;20055;-67
2023/07/28 12:30:29;;;;;;;4.15;1.90;;;;;;;;;;5050184;28;20107;-67
2023/07/28 12:32:55;;;;;;;1.27;1.05;;;;;;;;;;5053786;28;20116;-67
2023/07/28 12:35:23;;;;;;;2.63;1.67;;;;;;;;;;5049299;28;20040;-67
2023/07/28 12:37:51;;;;;;;2.45;1.70;;;24.60;99.90;;;;;;5035004;28;20041;-67
2023/07/28 12:40:18;;;;;;;2.63;1.50;;;;;;;;;;5042483;28;20180;-67
2023/07/28 12:42:46;;;;;;;5.07;1.55;;;;;;;;;;5045652;28;20072;-67
2023/07/28 12:45:12;;;;;;;2.53;1.73;;;;;;;;;;5045653;28;20532;-67
2023/07/28 12:47:39;;;;;;;5.45;2.00;;;;;;;;;;5047077;28;20055;-67
2023/07/28 12:50:06;;;;;;;3.15;1.70;;;;;;;;;;5047694;28;20395;-67
2023/07/28 12:52:32;;;;;;;2.28;1.85;;;;;;;;;;5030869;28;20508;-67
2023/07/28 12:54:58;;;;;;;3.15;1.45;;;;;;;;;;5007698;28;20037;-67
2023/07/28 12:57:25;;;;;;;3.22;1.70;;;;;;;;;;5044001;28;20426;-67